Jj Sky — VRJA6 — position and weather

sailwx.info

Track history (hours):
 
Tides and Currents Weather Stations Pressure Air Temp Water Temp Dewpoint Dewpoint Depression Visibility Wind Speed Wind Dir Waves Ship Positions

Jj Sky

Last reported at 2014-Nov-25 06:11 UTC. Time now 2014-Nov-26 20:24 UTC.
Position N 33°57' E 134°55'.

Length 148 m; draft 7 m.

Type: Ship. MMSI: 477397500.

Date/timePositionNaut miles runAvg speedWind from/ knotsBaromVisibWave heightAir tempDewpointWater temp
2014-Nov-25 06:11N 33°57' E 134°55'1117.9
2014-Nov-25 05:34N 34°08' E 134°57'1717.2
2014-Nov-25 04:33N 34°24' E 135°03'1717.4
2014-Nov-25 03:34N 34°38' E 135°16'2 0.9
2014-Nov-25 01:14N 34°40' E 135°14'0 0.0
2014-Nov-25 00:25N 34°40' E 135°14'0 0.0
2014-Nov-24 23:31N 34°40' E 135°14'0 0.0
2014-Nov-24 22:30N 34°40' E 135°14'5 4.8
2014-Nov-24 21:34N 34°38' E 135°20'4 3.4
2014-Nov-24 20:30N 34°39' E 135°24'0 0.0
2014-Nov-24 18:23N 34°39' E 135°24'0 0.0
2014-Nov-24 17:29N 34°39' E 135°24'0 0.0
2014-Nov-24 16:22N 34°39' E 135°24'0 0.0
2014-Nov-24 15:28N 34°39' E 135°24'0 0.0
2014-Nov-24 14:27N 34°39' E 135°24'0 0.0
2014-Nov-24 13:21N 34°39' E 135°24'0 0.0
2014-Nov-24 12:32N 34°39' E 135°24'0 0.0
2014-Nov-24 11:26N 34°39' E 135°24'0 0.0
2014-Nov-24 10:13N 34°39' E 135°24'0 0.0
2014-Nov-24 09:31N 34°39' E 135°24'0 0.0
2014-Nov-24 08:25N 34°39' E 135°24'0 0.0
2014-Nov-24 07:30N 34°39' E 135°24'0 0.0
2014-Nov-24 06:24N 34°39' E 135°24'0 0.0
2014-Nov-24 05:31N 34°39' E 135°24'0 0.0
2014-Nov-24 04:24N 34°39' E 135°24'0 0.0
2014-Nov-24 03:12N 34°39' E 135°24'0 0.0
2014-Nov-24 02:11N 34°39' E 135°24'0 0.0
2014-Nov-24 01:23N 34°39' E 135°24'0 0.0
2014-Nov-24 00:22N 34°39' E 135°24'0 0.0
2014-Nov-23 23:22N 34°39' E 135°24'0 0.0
2014-Nov-23 22:09N 34°39' E 135°24'0 0.4
2014-Nov-23 21:33N 34°39' E 135°24'1313.1
2014-Nov-23 20:33N 34°30' E 135°13'1716.3
2014-Nov-23 19:32N 34°17' E 134°59'1515.5
2014-Nov-23 18:33N 34°02' E 134°57'16315.8
2014-Nov-23 08:15N 32°07' E 132°38'1216.5
2014-Nov-23 07:32N 32°00' E 132°27'51613.1
2014-Nov-21 16:04N 31°05' E 122°26'814.8
2014-Nov-21 15:33N 31°07' E 122°17'1414.5
2014-Nov-21 14:33N 31°14' E 122°02'1414.2
2014-Nov-21 13:33N 31°18' E 121°46'5 4.7
2014-Nov-21 12:24N 31°20' E 121°40'0 0.0
2014-Nov-21 11:32N 31°20' E 121°40'0 0.0
2014-Nov-21 10:32N 31°20' E 121°40'0 0.0
2014-Nov-21 09:33N 31°20' E 121°40'0 0.0
2014-Nov-21 08:32N 31°20' E 121°40'0 0.0
2014-Nov-21 07:32N 31°20' E 121°40'0 0.0
2014-Nov-21 06:33N 31°20' E 121°40'0 0.0
2014-Nov-21 05:28N 31°20' E 121°40'0 0.0
2014-Nov-21 04:33N 31°20' E 121°40'0 0.0
2014-Nov-21 03:30N 31°20' E 121°40'0 0.0
2014-Nov-21 02:33N 31°20' E 121°40'0 0.0
2014-Nov-21 01:17N 31°20' E 121°40'0 0.0
2014-Nov-21 00:32N 31°20' E 121°40'0 0.0
2014-Nov-20 23:31N 31°20' E 121°40'0 0.0
2014-Nov-20 22:31N 31°20' E 121°40'0 0.0
2014-Nov-20 21:29N 31°20' E 121°40'0 0.0
2014-Nov-20 20:28N 31°20' E 121°40'0 0.0
2014-Nov-20 19:31N 31°20' E 121°40'0 0.0
2014-Nov-20 18:33N 31°20' E 121°40'0 0.0
2014-Nov-20 17:33N 31°20' E 121°40'0 0.0
2014-Nov-20 16:33N 31°20' E 121°40'0 0.0
2014-Nov-20 15:29N 31°20' E 121°40'0 0.0
2014-Nov-20 14:32N 31°20' E 121°40'2 1.9
2014-Nov-20 13:34N 31°20' E 121°43'1010.5
2014-Nov-20 12:33N 31°16' E 121°54'1110.9
2014-Nov-20 11:33N 31°13' E 122°06'1211.7
2014-Nov-20 10:33N 31°07' E 122°18'66113.5
2014-Nov-18 09:30N 33°59' E 134°54'1616.9
2014-Nov-18 08:34N 34°14' E 134°58'1616.3
2014-Nov-18 07:34N 34°29' E 135°08'1212.0
2014-Nov-18 06:32N 34°39' E 135°15'0 0.1
2014-Nov-18 05:32N 34°39' E 135°15'0 0.0
2014-Nov-18 04:13N 34°39' E 135°15'0 0.0
2014-Nov-18 03:25N 34°39' E 135°15'0 0.0
2014-Nov-18 02:30N 34°39' E 135°15'0 0.0
2014-Nov-18 01:30N 34°39' E 135°15'0 0.0
2014-Nov-18 00:30N 34°39' E 135°15'0 0.0
2014-Nov-17 23:23N 34°39' E 135°15'0 0.1
2014-Nov-17 22:33N 34°39' E 135°15'6 6.3
2014-Nov-17 21:33N 34°38' E 135°22'2 1.8
2014-Nov-17 20:33N 34°39' E 135°24'0 0.0
2014-Nov-17 19:26N 34°39' E 135°24'0 0.0
2014-Nov-17 18:32N 34°39' E 135°24'0 0.0
2014-Nov-17 17:31N 34°39' E 135°24'0 0.0
2014-Nov-17 16:25N 34°39' E 135°24'0 0.0
2014-Nov-17 15:31N 34°39' E 135°24'0 0.0
2014-Nov-17 14:30N 34°39' E 135°24'0 0.0
2014-Nov-17 13:24N 34°39' E 135°24'0 0.0
2014-Nov-17 12:29N 34°39' E 135°24'0 0.0
2014-Nov-17 11:29N 34°39' E 135°24'0 0.0
2014-Nov-17 10:28N 34°39' E 135°24'0 0.0
2014-Nov-17 09:28N 34°39' E 135°24'0 0.0
2014-Nov-17 08:28N 34°39' E 135°24'0 0.0
2014-Nov-17 07:22N 34°39' E 135°24'0 0.0
2014-Nov-17 06:28N 34°39' E 135°24'0 0.0
2014-Nov-17 05:33N 34°39' E 135°24'0 0.0
2014-Nov-17 04:27N 34°39' E 135°24'0 0.0
2014-Nov-17 03:21N 34°39' E 135°24'0 0.0
2014-Nov-17 02:33N 34°39' E 135°24'0 0.0
2014-Nov-17 01:26N 34°39' E 135°24'0 0.0
2014-Nov-17 00:20N 34°39' E 135°24'0 0.0
2014-Nov-16 23:31N 34°39' E 135°24'0 0.0
2014-Nov-16 22:19N 34°39' E 135°24'3 4.4
2014-Nov-16 21:33N 34°37' E 135°21'1313.4
2014-Nov-16 20:33N 34°27' E 135°11'1413.6
2014-Nov-16 19:33N 34°17' E 134°59'1413.7
2014-Nov-16 18:33N 34°04' E 134°56'  
Track history (hours):
 
Tides and Currents Weather Stations Pressure Air Temp Water Temp Dewpoint Dewpoint Depression Visibility Wind Speed Wind Dir Waves Ship Positions

Jj Sky

Last reported at 2014-Nov-25 06:11 UTC. Time now 2014-Nov-26 20:25 UTC.
Position N 33°57' E 134°55'.

Length 148 m; draft 7 m.

Type: Ship. MMSI: 477397500.

Date/timePositionNaut miles runAvg speedWind from/ knotsBaromVisibWave heightAir tempDewpointWater temp
2014-Nov-25 06:11N 33°57' E 134°55'1117.9
2014-Nov-25 05:34N 34°08' E 134°57'1717.2
2014-Nov-25 04:33N 34°24' E 135°03'1717.4
2014-Nov-25 03:34N 34°38' E 135°16'2 0.9
2014-Nov-25 01:14N 34°40' E 135°14'0 0.0
2014-Nov-25 00:25N 34°40' E 135°14'0 0.0
2014-Nov-24 23:31N 34°40' E 135°14'0 0.0
2014-Nov-24 22:30N 34°40' E 135°14'5 4.8
2014-Nov-24 21:34N 34°38' E 135°20'4 3.4
2014-Nov-24 20:30N 34°39' E 135°24'0 0.0
2014-Nov-24 18:23N 34°39' E 135°24'0 0.0
2014-Nov-24 17:29N 34°39' E 135°24'0 0.0
2014-Nov-24 16:22N 34°39' E 135°24'0 0.0
2014-Nov-24 15:28N 34°39' E 135°24'0 0.0
2014-Nov-24 14:27N 34°39' E 135°24'0 0.0
2014-Nov-24 13:21N 34°39' E 135°24'0 0.0
2014-Nov-24 12:32N 34°39' E 135°24'0 0.0
2014-Nov-24 11:26N 34°39' E 135°24'0 0.0
2014-Nov-24 10:13N 34°39' E 135°24'0 0.0
2014-Nov-24 09:31N 34°39' E 135°24'0 0.0
2014-Nov-24 08:25N 34°39' E 135°24'0 0.0
2014-Nov-24 07:30N 34°39' E 135°24'0 0.0
2014-Nov-24 06:24N 34°39' E 135°24'0 0.0
2014-Nov-24 05:31N 34°39' E 135°24'0 0.0
2014-Nov-24 04:24N 34°39' E 135°24'0 0.0
2014-Nov-24 03:12N 34°39' E 135°24'0 0.0
2014-Nov-24 02:11N 34°39' E 135°24'0 0.0
2014-Nov-24 01:23N 34°39' E 135°24'0 0.0
2014-Nov-24 00:22N 34°39' E 135°24'0 0.0
2014-Nov-23 23:22N 34°39' E 135°24'0 0.0
2014-Nov-23 22:09N 34°39' E 135°24'0 0.4
2014-Nov-23 21:33N 34°39' E 135°24'1313.1
2014-Nov-23 20:33N 34°30' E 135°13'1716.3
2014-Nov-23 19:32N 34°17' E 134°59'1515.5
2014-Nov-23 18:33N 34°02' E 134°57'16315.8
2014-Nov-23 08:15N 32°07' E 132°38'1216.5
2014-Nov-23 07:32N 32°00' E 132°27'51613.1
2014-Nov-21 16:04N 31°05' E 122°26'814.8
2014-Nov-21 15:33N 31°07' E 122°17'1414.5
2014-Nov-21 14:33N 31°14' E 122°02'1414.2
2014-Nov-21 13:33N 31°18' E 121°46'5 4.7
2014-Nov-21 12:24N 31°20' E 121°40'0 0.0
2014-Nov-21 11:32N 31°20' E 121°40'0 0.0
2014-Nov-21 10:32N 31°20' E 121°40'0 0.0
2014-Nov-21 09:33N 31°20' E 121°40'0 0.0
2014-Nov-21 08:32N 31°20' E 121°40'0 0.0
2014-Nov-21 07:32N 31°20' E 121°40'0 0.0
2014-Nov-21 06:33N 31°20' E 121°40'0 0.0
2014-Nov-21 05:28N 31°20' E 121°40'0 0.0
2014-Nov-21 04:33N 31°20' E 121°40'0 0.0
2014-Nov-21 03:30N 31°20' E 121°40'0 0.0
2014-Nov-21 02:33N 31°20' E 121°40'0 0.0
2014-Nov-21 01:17N 31°20' E 121°40'0 0.0
2014-Nov-21 00:32N 31°20' E 121°40'0 0.0
2014-Nov-20 23:31N 31°20' E 121°40'0 0.0
2014-Nov-20 22:31N 31°20' E 121°40'0 0.0
2014-Nov-20 21:29N 31°20' E 121°40'0 0.0
2014-Nov-20 20:28N 31°20' E 121°40'0 0.0
2014-Nov-20 19:31N 31°20' E 121°40'0 0.0
2014-Nov-20 18:33N 31°20' E 121°40'0 0.0
2014-Nov-20 17:33N 31°20' E 121°40'0 0.0
2014-Nov-20 16:33N 31°20' E 121°40'0 0.0
2014-Nov-20 15:29N 31°20' E 121°40'0 0.0
2014-Nov-20 14:32N 31°20' E 121°40'2 1.9
2014-Nov-20 13:34N 31°20' E 121°43'1010.5
2014-Nov-20 12:33N 31°16' E 121°54'1110.9
2014-Nov-20 11:33N 31°13' E 122°06'1211.7
2014-Nov-20 10:33N 31°07' E 122°18'66113.5
2014-Nov-18 09:30N 33°59' E 134°54'1616.9
2014-Nov-18 08:34N 34°14' E 134°58'1616.3
2014-Nov-18 07:34N 34°29' E 135°08'1212.0
2014-Nov-18 06:32N 34°39' E 135°15'0 0.1
2014-Nov-18 05:32N 34°39' E 135°15'0 0.0
2014-Nov-18 04:13N 34°39' E 135°15'0 0.0
2014-Nov-18 03:25N 34°39' E 135°15'0 0.0
2014-Nov-18 02:30N 34°39' E 135°15'0 0.0
2014-Nov-18 01:30N 34°39' E 135°15'0 0.0
2014-Nov-18 00:30N 34°39' E 135°15'0 0.0
2014-Nov-17 23:23N 34°39' E 135°15'0 0.1
2014-Nov-17 22:33N 34°39' E 135°15'6 6.3
2014-Nov-17 21:33N 34°38' E 135°22'2 1.8
2014-Nov-17 20:33N 34°39' E 135°24'0 0.0
2014-Nov-17 19:26N 34°39' E 135°24'0 0.0
2014-Nov-17 18:32N 34°39' E 135°24'0 0.0
2014-Nov-17 17:31N 34°39' E 135°24'0 0.0
2014-Nov-17 16:25N 34°39' E 135°24'0 0.0
2014-Nov-17 15:31N 34°39' E 135°24'0 0.0
2014-Nov-17 14:30N 34°39' E 135°24'0 0.0
2014-Nov-17 13:24N 34°39' E 135°24'0 0.0
2014-Nov-17 12:29N 34°39' E 135°24'0 0.0
2014-Nov-17 11:29N 34°39' E 135°24'0 0.0
2014-Nov-17 10:28N 34°39' E 135°24'0 0.0
2014-Nov-17 09:28N 34°39' E 135°24'0 0.0
2014-Nov-17 08:28N 34°39' E 135°24'0 0.0
2014-Nov-17 07:22N 34°39' E 135°24'0 0.0
2014-Nov-17 06:28N 34°39' E 135°24'0 0.0
2014-Nov-17 05:33N 34°39' E 135°24'0 0.0
2014-Nov-17 04:27N 34°39' E 135°24'0 0.0
2014-Nov-17 03:21N 34°39' E 135°24'0 0.0
2014-Nov-17 02:33N 34°39' E 135°24'0 0.0
2014-Nov-17 01:26N 34°39' E 135°24'0 0.0
2014-Nov-17 00:20N 34°39' E 135°24'0 0.0
2014-Nov-16 23:31N 34°39' E 135°24'0 0.0
2014-Nov-16 22:19N 34°39' E 135°24'3 4.4
2014-Nov-16 21:33N 34°37' E 135°21'1313.4
2014-Nov-16 20:33N 34°27' E 135°11'1413.6
2014-Nov-16 19:33N 34°17' E 134°59'1413.7
2014-Nov-16 18:33N 34°04' E 134°56'  

Dump ship's entire track history